Time;durP1;ratioP1;P1;durP2;ratioP2;P2;SDS_P1;SDS_P2;PMS_P1;PMS_P2;Temp;Humidity;BMP_temperature;BMP_pressure;BME280_temperature;BME280_humidity;BME280_pressure;Samples;Min_cycle;Max_cycle;Signal;HPM_P1;HPM_P2
2023/09/05 00:00:11;;;;;;;1.60;1.50;;;;;;;16.83;83.85;101890.34;4993621;28;19925;-87
2023/09/05 00:02:38;;;;;;;2.47;1.50;;;;;;;16.78;83.89;101905.31;4994335;28;20049;-87
2023/09/05 00:05:07;;;;;;;1.80;1.70;;;;;;;16.78;83.98;101909.72;4993971;28;20026;-87
2023/09/05 00:07:36;;;;;;;1.77;1.67;;;;;;;16.73;84.39;101901.97;4993829;28;20089;-87
2023/09/05 00:10:20;;;;;;;1.83;1.73;;;;;;;16.69;84.51;101900.31;4994659;28;20032;-87
2023/09/05 00:12:46;;;;;;;1.80;1.70;;;;;;;16.62;84.47;101894.34;4994381;28;20109;-87
2023/09/05 00:15:13;;;;;;;2.17;1.90;;;;;;;16.59;84.52;101894.44;4993238;28;20026;-87
2023/09/05 00:17:40;;;;;;;1.65;1.55;;;;;;;16.52;84.78;101888.50;4993839;28;20502;-87
2023/09/05 00:20:06;;;;;;;;;;;;;;;16.49;84.70;101887.69;4993447;28;20447;-88
2023/09/05 00:22:31;;;;;;;2.10;1.90;;;;;;;16.42;84.92;101886.97;4993897;28;20012;-87
2023/09/05 00:24:57;;;;;;;2.00;1.80;;;;;;;16.39;85.11;101876.56;4994338;28;20041;-87
2023/09/05 00:27:22;;;;;;;1.83;1.73;;;;;;;16.38;85.05;101889.72;4993506;28;20034;-87
2023/09/05 00:29:47;;;;;;;1.90;1.80;;;;;;;16.35;85.18;101893.25;4993621;28;20113;-87
2023/09/05 00:32:13;;;;;;;2.20;2.00;;;;;;;16.34;85.11;101891.50;4993455;28;20034;-87
2023/09/05 00:34:39;;;;;;;2.92;2.20;;;;;;;16.31;85.10;101896.84;4994510;28;20560;-88
2023/09/05 00:37:08;;;;;;;2.27;2.03;;;;;;;16.29;85.46;101896.00;4993745;28;20165;-87
2023/09/05 00:39:35;;;;;;;2.22;2.03;;;;;;;16.26;85.46;101901.31;4994193;28;20030;-87
2023/09/05 00:42:09;;;;;;;1.98;1.83;;;;;;;16.19;85.62;101895.34;4993323;28;20039;-87
2023/09/05 00:44:35;;;;;;;2.30;1.83;;;;;;;16.12;86.25;101888.53;4993868;28;20364;-87
2023/09/05 00:47:00;;;;;;;2.30;1.90;;;;;;;16.10;86.27;101899.00;4993291;28;20018;-87
2023/09/05 00:49:29;;;;;;;2.30;2.00;;;;;;;16.05;85.93;101903.50;4992782;28;20502;-87
2023/09/05 00:51:59;;;;;;;2.00;1.90;;;;;;;16.00;86.23;101911.47;4993788;28;20018;-87
2023/09/05 00:54:25;;;;;;;2.03;1.83;;;;;;;16.01;86.01;101907.94;4992840;28;20101;-87
2023/09/05 00:56:52;;;;;;;2.20;2.00;;;;;;;15.99;86.14;101908.84;4992302;28;20029;-87
2023/09/05 00:59:18;;;;;;;;;;;;;;;15.99;86.48;101912.34;4993385;28;20109;-87
2023/09/05 01:01:43;;;;;;;2.08;1.90;;;;;;;15.92;86.48;101910.78;4993653;28;20009;-87
2023/09/05 01:04:08;;;;;;;2.40;2.20;;;;;;;15.83;86.31;101896.06;4992729;28;20260;-87
2023/09/05 01:07:12;;;;;;;2.07;1.97;;;;;;;15.81;86.78;101900.47;4993387;28;20487;-86
2023/09/05 01:09:49;;;;;;;2.40;2.20;;;;;;;15.75;86.83;101904.06;4990111;28;20045;-87
2023/09/05 01:12:15;;;;;;;1.98;1.70;;;;;;;15.70;86.87;101897.22;4993479;28;20218;-87
2023/09/05 01:14:40;;;;;;;1.80;1.70;;;;;;;15.70;86.94;101903.31;4993053;28;20057;-87
2023/09/05 01:17:05;;;;;;;2.00;1.80;;;;;;;15.69;87.22;101900.72;4991876;28;20065;-87
2023/09/05 01:19:35;;;;;;;1.70;1.60;;;;;;;15.65;87.74;101899.91;4992879;28;20030;-87
2023/09/05 01:22:13;;;;;;;1.70;1.60;;;;;;;15.63;87.66;101895.63;4993252;28;20356;-87
2023/09/05 01:24:47;;;;;;;1.92;1.77;;;;;;;15.60;87.52;101888.66;4992758;28;20034;-86
2023/09/05 01:27:17;;;;;;;2.10;1.63;;;;;;;15.59;87.65;101890.44;4993258;28;20026;-87
2023/09/05 01:29:43;;;;;;;1.92;1.75;;;;;;;15.63;87.74;101898.22;4993629;28;20391;-88
2023/09/05 01:32:10;;;;;;;1.85;1.67;;;;;;;15.59;87.91;101885.19;4992843;28;20077;-87
2023/09/05 01:34:35;;;;;;;1.80;1.70;;;;;;;15.62;87.59;101907.81;4994916;28;20030;-87
2023/09/05 01:37:01;;;;;;;1.70;1.60;;;;;;;15.61;87.86;101906.09;4993167;28;20023;-87
2023/09/05 01:39:26;;;;;;;1.90;1.80;;;;;;;15.59;87.77;101903.53;4992353;28;20412;-87
2023/09/05 01:41:52;;;;;;;1.70;1.60;;;;;;;15.55;87.73;101898.38;4992941;28;20037;-87
2023/09/05 01:44:17;;;;;;;1.77;1.67;;;;;;;15.54;87.82;101899.25;4992839;28;20054;-87
2023/09/05 01:46:43;;;;;;;1.77;1.67;;;;;;;15.53;87.93;101892.31;4992507;28;20030;-87
2023/09/05 01:49:09;;;;;;;1.70;1.60;;;;;;;15.51;87.81;101901.94;4992949;28;20093;-87
2023/09/05 01:51:34;;;;;;;2.57;1.80;;;;;;;15.50;87.87;101902.81;4992712;28;20022;-87
2023/09/05 01:53:59;;;;;;;1.87;1.70;;;;;;;15.46;87.76;101894.19;4993077;28;20046;-88
2023/09/05 01:56:25;;;;;;;1.60;1.50;;;;;;;15.44;88.21;101902.06;4992550;28;20034;-87
2023/09/05 01:58:50;;;;;;;1.60;1.50;;;;;;;15.44;88.26;101901.19;4992249;28;20026;-87
2023/09/05 02:01:16;;;;;;;1.60;1.50;;;;;;;15.44;88.12;101898.56;4992643;28;20110;-87
2023/09/05 02:03:41;;;;;;;1.67;1.57;;;;;;;15.43;88.28;101904.69;4992919;28;20062;-86
2023/09/05 02:06:07;;;;;;;1.70;1.60;;;;;;;15.45;88.46;101905.53;4991965;28;20035;-87
2023/09/05 02:08:35;;;;;;;1.87;1.70;;;;;;;15.43;88.40;101905.56;4994154;28;20062;-87
2023/09/05 02:11:01;;;;;;;1.52;1.40;;;;;;;15.41;88.54;101899.50;4996314;28;20027;-87
2023/09/05 02:13:28;;;;;;;1.40;1.30;;;;;;;15.39;88.49;101897.81;4995602;28;20078;-87
2023/09/05 02:15:53;;;;;;;2.72;2.20;;;;;;;15.32;90.38;101891.81;4995967;28;20290;-87
2023/09/05 02:18:19;;;;;;;3.60;2.40;;;;;;;15.31;90.09;101889.25;4996098;28;20036;-87
2023/09/05 02:20:44;;;;;;;3.27;2.40;;;;;;;15.37;90.01;101896.97;4995570;28;20410;-87
2023/09/05 02:23:10;;;;;;;6.87;4.10;;;;;;;15.39;90.41;101890.81;4996278;28;20077;-87
2023/09/05 02:25:38;;;;;;;7.97;4.43;;;;;;;15.48;90.90;101896.78;4996246;28;20376;-87
2023/09/05 02:28:04;;;;;;;8.40;4.55;;;;;;;15.51;90.52;101891.47;4995077;28;20027;-87
2023/09/05 02:30:30;;;;;;;9.17;4.83;;;;;;;15.53;90.85;101889.69;4996128;28;20513;-87
2023/09/05 02:32:56;;;;;;;8.27;4.50;;;;;;;15.54;90.71;101891.41;4996124;28;20065;-87
2023/09/05 02:35:25;;;;;;;7.55;4.32;;;;;;;15.53;90.46;101889.69;4995725;28;20551;-87
2023/09/05 02:37:55;;;;;;;8.57;4.57;;;;;;;15.52;91.00;101895.81;4995967;28;20037;-87
2023/09/05 02:40:21;;;;;;;8.98;5.05;;;;;;;15.51;90.77;101892.34;4995754;28;20022;-86
2023/09/05 02:42:46;;;;;;;8.80;4.88;;;;;;;15.56;90.73;101894.88;4993929;28;20082;-86
2023/09/05 02:45:13;;;;;;;6.30;4.10;;;;;;;15.56;90.47;101893.09;4995641;28;20050;-86
2023/09/05 02:47:39;;;;;;;8.75;4.88;;;;;;;15.53;90.43;101890.56;4995367;28;20038;-85
2023/09/05 02:50:05;;;;;;;7.03;4.32;;;;;;;15.52;90.33;101883.59;4995563;28;20036;-87
2023/09/05 02:52:32;;;;;;;5.40;3.67;;;;;;;15.54;89.51;101886.19;4995427;28;20062;-86
2023/09/05 02:54:58;;;;;;;4.18;3.20;;;;;;;15.54;89.23;101883.56;4994697;28;20070;-86
2023/09/05 02:57:23;;;;;;;2.93;2.53;;;;;;;15.53;89.78;101879.22;4995142;28;20116;-86
2023/09/05 02:59:54;;;;;;;4.77;3.20;;;;;;;15.50;90.28;101879.28;4995672;28;20463;-87
2023/09/05 03:02:22;;;;;;;3.67;2.70;;;;;;;15.48;90.25;101875.84;4994563;28;20034;-86
2023/09/05 03:04:51;;;;;;;9.07;4.43;;;;;;;15.44;90.80;101877.63;4995450;28;20360;-87
2023/09/05 03:07:17;;;;;;;9.77;4.53;;;;;;;15.43;91.47;101873.28;4995141;28;20022;-87
2023/09/05 03:09:43;;;;;;;7.70;4.80;;;;;;;15.44;91.14;101877.63;4994591;28;20096;-87
2023/09/05 03:12:08;;;;;;;10.10;5.00;;;;;;;15.42;91.21;101863.75;4994984;28;20460;-86
2023/09/05 03:14:37;;;;;;;5.93;4.00;;;;;;;15.43;90.75;101868.06;4995037;28;20027;-87
2023/09/05 03:17:04;;;;;;;8.45;4.90;;;;;;;15.42;91.09;101877.69;4994438;28;20034;-85
2023/09/05 03:19:30;;;;;;;9.60;4.88;;;;;;;15.44;90.64;101875.91;4994703;28;20041;-86
2023/09/05 03:21:55;;;;;;;7.87;4.70;;;;;;;15.40;91.41;101865.53;4994921;28;20031;-86
2023/09/05 03:24:21;;;;;;;8.47;4.70;;;;;;;15.39;91.51;101869.88;4994016;28;20033;-87
2023/09/05 03:26:46;;;;;;;7.37;4.57;;;;;;;15.40;91.36;101874.22;4994826;28;20034;-87
2023/09/05 03:29:13;;;;;;;8.77;4.90;;;;;;;15.39;91.58;101874.25;4994535;28;20097;-86
2023/09/05 03:31:41;;;;;;;7.97;4.57;;;;;;;15.37;91.17;101869.03;4993864;28;20525;-86
2023/09/05 03:34:06;;;;;;;6.05;3.88;;;;;;;15.38;90.93;101867.31;4988428;28;20023;-87
2023/09/05 03:36:32;;;;;;;6.20;3.70;;;;;;;15.36;91.07;101867.34;4975332;28;20404;-86
2023/09/05 03:38:58;;;;;;;4.95;3.40;;;;;;;15.32;90.19;101859.56;4976069;28;20023;-86
2023/09/05 03:41:24;;;;;;;4.97;3.27;;;;;;;15.35;89.84;101867.34;4994251;28;20383;-87
2023/09/05 03:43:49;;;;;;;3.40;2.60;;;;;;;15.35;90.62;101869.97;4994668;28;20081;-86
2023/09/05 03:46:14;;;;;;;3.83;2.80;;;;;;;15.34;90.15;101873.47;4993893;28;20022;-87
2023/09/05 03:48:39;;;;;;;3.27;2.60;;;;;;;15.29;90.87;101869.22;4994357;28;20046;-86
2023/09/05 03:51:05;;;;;;;5.47;3.50;;;;;;;15.22;91.34;101864.13;4993776;28;20018;-86
2023/09/05 03:53:31;;;;;;;5.90;3.60;;;;;;;15.21;90.98;101865.00;4994669;28;20039;-87
2023/09/05 03:55:56;;;;;;;3.80;2.83;;;;;;;15.25;90.43;101871.91;4994497;28;20034;-86
2023/09/05 03:58:22;;;;;;;4.93;3.07;;;;;;;15.22;90.84;101861.50;4993078;28;20066;-86
2023/09/05 04:00:47;;;;;;;6.88;3.85;;;;;;;15.14;91.71;101859.88;4994639;28;20019;-86
2023/09/05 04:03:13;;;;;;;5.57;3.63;;;;;;;15.21;90.82;101865.84;4994393;28;20085;-87
2023/09/05 04:05:39;;;;;;;4.70;3.37;;;;;;;15.20;90.89;101860.66;4993549;28;20504;-87
2023/09/05 04:08:08;;;;;;;5.93;3.30;;;;;;;15.20;90.88;101860.66;4993613;28;20054;-86
2023/09/05 04:10:34;;;;;;;4.75;3.33;;;;;;;15.16;91.29;101854.63;4994126;28;20022;-87
2023/09/05 04:12:59;;;;;;;3.83;3.20;;;;;;;15.21;90.29;101851.94;4993415;28;20034;-87
2023/09/05 04:15:25;;;;;;;3.60;2.70;;;;;;;15.19;90.36;101849.34;4994128;28;20522;-88
2023/09/05 04:17:53;;;;;;;3.90;2.80;;;;;;;15.16;90.36;101838.06;4994271;28;20034;-87
2023/09/05 04:20:18;;;;;;;3.17;2.50;;;;;;;15.17;90.44;101840.69;4993370;28;20037;-87
2023/09/05 04:22:44;;;;;;;3.63;2.57;;;;;;;15.17;90.13;101843.28;4994145;28;20054;-88
2023/09/05 04:25:10;;;;;;;3.00;2.40;;;;;;;15.14;90.28;101838.09;4993541;28;20022;-87
2023/09/05 04:27:36;;;;;;;2.10;1.90;;;;;;;15.11;90.18;101830.31;4993503;28;20048;-88
2023/09/05 04:30:03;;;;;;;2.70;2.37;;;;;;;15.11;90.34;101835.53;4994236;28;20471;-87
2023/09/05 04:32:34;;;;;;;3.28;2.20;;;;;;;15.10;90.54;101844.28;4993358;28;20026;-87
2023/09/05 04:35:02;;;;;;;3.00;2.30;;;;;;;15.08;90.16;101841.69;4993198;28;20034;-88
2023/09/05 04:37:28;;;;;;;2.20;2.00;;;;;;;15.10;90.16;101844.28;4993066;28;20061;-87
2023/09/05 04:39:54;;;;;;;2.35;2.10;;;;;;;15.08;89.97;101846.06;4993852;28;20109;-87
2023/09/05 04:42:20;;;;;;;2.42;2.13;;;;;;;15.07;89.28;101846.97;4992980;28;20081;-87
2023/09/05 04:44:46;;;;;;;2.38;2.08;;;;;;;15.08;89.70;101843.47;4993491;28;20030;-86
2023/09/05 04:47:26;;;;;;;1.73;1.63;;;;;;;15.05;89.87;101838.28;4992988;28;20026;-85
2023/09/05 04:49:53;;;;;;;1.80;1.70;;;;;;;14.98;89.97;101827.06;4993225;28;20513;-84
2023/09/05 04:52:20;;;;;;;1.50;1.40;;;;;;;14.98;89.81;101834.91;4992833;28;20066;-84
2023/09/05 04:54:45;;;;;;;1.70;1.60;;;;;;;14.98;89.96;101835.75;4992500;28;20046;-85
2023/09/05 04:57:16;;;;;;;1.73;1.47;;;;;;;14.96;89.98;101837.56;4993412;28;20084;-86
2023/09/05 04:59:43;;;;;;;1.60;1.50;;;;;;;14.98;89.44;101840.13;4993434;28;20049;-85
2023/09/05 05:02:09;;;;;;;1.42;1.33;;;;;;;14.94;90.21;101833.22;4992074;28;20407;-86
2023/09/05 05:04:34;;;;;;;1.83;1.73;;;;;;;14.95;89.93;101835.84;4993449;28;20033;-86
2023/09/05 05:07:02;;;;;;;1.70;1.60;;;;;;;14.94;90.27;101831.50;4992883;28;20413;-86
2023/09/05 05:09:28;;;;;;;1.65;1.55;;;;;;;14.91;89.91;101828.09;4992440;28;20058;-86
2023/09/05 05:11:54;;;;;;;1.47;1.37;;;;;;;14.87;89.88;101829.84;4993423;28;20097;-86
2023/09/05 05:14:19;;;;;;;1.60;1.50;;;;;;;14.91;90.50;101839.38;4993148;28;20047;-86
2023/09/05 05:16:44;;;;;;;1.70;1.60;;;;;;;14.89;90.08;101835.94;4992758;28;20062;-86
2023/09/05 05:19:10;;;;;;;1.63;1.53;;;;;;;14.87;89.78;101832.47;4993197;28;20022;-86
2023/09/05 05:21:36;;;;;;;3.42;2.65;;;;;;;14.90;90.85;101848.09;4992046;28;20108;-82
2023/09/05 05:24:02;;;;;;;3.35;2.60;;;;;;;14.97;89.94;101843.66;4992469;28;20105;-82
2023/09/05 05:26:29;;;;;;;2.37;2.17;;;;;;;14.97;89.98;101844.50;4992782;28;20054;-83
2023/09/05 05:28:54;;;;;;;2.30;2.10;;;;;;;15.00;89.57;101846.22;4992878;28;20034;-82
2023/09/05 05:31:20;;;;;;;2.27;2.03;;;;;;;15.03;89.53;101848.75;4992492;28;20030;-87
2023/09/05 05:33:45;;;;;;;2.20;2.00;;;;;;;15.01;89.89;101847.06;4992709;28;20026;-86
2023/09/05 05:36:10;;;;;;;2.30;2.10;;;;;;;15.02;90.06;101854.00;4992825;28;20467;-85
2023/09/05 05:38:36;;;;;;;2.40;2.10;;;;;;;15.03;89.93;101856.59;4991844;28;20038;-86
2023/09/05 05:41:02;;;;;;;2.17;1.97;;;;;;;15.10;89.91;101865.19;4992892;28;20069;-87
2023/09/05 05:43:29;;;;;;;2.78;2.30;;;;;;;15.06;89.87;101855.69;4996146;28;20018;-88
2023/09/05 05:45:54;;;;;;;2.22;2.03;;;;;;;15.12;89.78;101864.28;4996716;28;20026;-90
2023/09/05 05:48:20;;;;;;;2.20;2.00;;;;;;;15.07;89.22;101846.97;4996550;28;20389;-86
2023/09/05 05:50:45;;;;;;;2.50;2.00;;;;;;;15.17;89.21;101856.38;4996229;28;20432;-85
2023/09/05 05:53:11;;;;;;;2.07;1.87;;;;;;;15.22;89.32;101853.66;4996195;28;20042;-86
2023/09/05 05:55:36;;;;;;;1.60;1.50;;;;;;;15.25;88.97;101848.38;4996604;28;20137;-86
2023/09/05 05:58:01;;;;;;;2.20;2.00;;;;;;;15.29;89.34;101865.72;4995990;28;20026;-86
2023/09/05 06:00:29;;;;;;;3.70;2.10;;;;;;;15.32;89.11;101859.56;4996390;28;20021;-86
2023/09/05 06:03:11;;;;;;;3.03;2.38;;;;;;;15.33;89.17;101850.81;4992487;28;20062;-90
2023/09/05 06:05:36;;;;;;;2.22;2.00;;;;;;;15.39;88.78;101853.34;4977166;28;20034;-88
2023/09/05 06:08:02;;;;;;;2.27;1.90;;;;;;;15.44;88.83;101857.59;4977861;28;20157;-89
2023/09/05 06:10:31;;;;;;;2.10;1.90;;;;;;;15.49;88.32;101862.72;4977282;28;20790;-84
2023/09/05 06:12:56;;;;;;;2.00;1.90;;;;;;;15.55;88.86;101866.97;4975960;28;20030;-84
2023/09/05 06:15:21;;;;;;;2.60;2.20;;;;;;;15.60;88.69;101865.13;4977259;28;20045;-93
2023/09/05 06:17:47;;;;;;;2.17;1.97;;;;;;;15.57;88.34;101852.13;4978316;28;20039;-91
2023/09/05 06:20:13;;;;;;;1.90;1.80;;;;;;;15.66;88.66;101858.91;4976037;28;20105;-86
2023/09/05 06:22:53;;;;;;;2.00;1.90;;;;;;;15.71;88.50;101860.53;4976823;28;20436;-85
2023/09/05 06:25:19;;;;;;;2.20;2.00;;;;;;;15.73;88.34;101858.75;4976078;28;20122;-86
2023/09/05 06:27:44;;;;;;;2.63;2.10;;;;;;;15.81;88.41;101860.38;4975965;28;20105;-86
2023/09/05 06:30:13;;;;;;;2.17;1.97;;;;;;;15.87;89.01;101857.63;4976472;28;20093;-85
2023/09/05 06:32:44;;;;;;;2.47;2.20;;;;;;;15.87;87.91;101845.44;4989248;28;20026;-92
2023/09/05 06:35:16;;;;;;;2.38;2.15;;;;;;;15.98;88.46;101855.66;4996195;28;20066;-89
2023/09/05 06:37:51;;;;;;;3.20;2.50;;;;;;;16.08;88.21;101865.91;4996764;28;20122;-92
2023/09/05 06:40:18;;;;;;;3.53;2.47;;;;;;;16.16;87.44;101859.63;4995434;28;20054;-88
2023/09/05 06:42:44;;;;;;;3.13;2.53;;;;;;;16.25;87.59;101861.19;4995800;28;20467;-90
2023/09/05 06:45:19;;;;;;;2.10;1.98;;;;;;;16.26;87.51;101843.69;4995607;28;20463;-89
2023/09/05 06:47:53;;;;;;;3.13;2.20;;;;;;;16.39;87.88;101850.38;4996344;28;20114;-90
2023/09/05 06:50:22;;;;;;;2.42;2.10;;;;;;;16.46;88.14;101851.09;4995665;28;20019;-88
2023/09/05 06:52:48;;;;;;;3.00;2.50;;;;;;;16.55;87.26;101860.50;4996076;28;20085;-88
2023/09/05 06:55:13;;;;;;;2.95;2.40;;;;;;;16.63;86.81;101858.53;5080573;23;20080;-88
2023/09/05 06:57:39;;;;;;;3.33;2.70;;;;;;;16.73;86.31;101849.53;5035437;28;20033;-89
2023/09/05 07:00:04;;;;;;;2.53;2.33;;;;;;;17.26;85.46;101858.69;5034715;28;20026;-89
2023/09/05 07:02:30;;;;;;;3.08;2.60;;;;;;;19.68;84.07;101851.84;5023988;28;20062;-89
2023/09/05 07:04:55;;;;;;;2.40;2.20;;;;;;;22.70;78.78;101847.63;5014965;28;20472;-89
2023/09/05 07:07:20;;;;;;;2.73;2.43;;;;;;;25.02;71.61;101842.81;5014773;28;20030;-89
2023/09/05 07:09:46;;;;;;;4.40;2.47;;;;;;;26.94;55.96;101840.31;5014496;28;20040;-89
2023/09/05 07:12:12;;;;;;;2.53;2.30;;;;;;;28.01;59.33;101840.75;5015247;28;20026;-89
2023/09/05 07:14:37;;;;;;;2.07;1.87;;;;;;;28.85;57.29;101847.84;5015900;28;20022;-90
2023/09/05 07:17:06;;;;;;;2.10;1.90;;;;;;;29.07;54.40;101852.38;5013967;28;20777;-88
2023/09/05 07:19:31;;;;;;;2.10;1.70;;;;;;;28.38;55.59;101848.69;5015225;28;20049;-89
2023/09/05 07:21:57;;;;;;;2.17;1.97;;;;;;;27.21;55.67;101839.31;5014780;28;20120;-88
2023/09/05 07:24:23;;;;;;;2.63;2.17;;;;;;;25.82;56.88;101844.97;5014601;28;20032;-89
2023/09/05 07:26:48;;;;;;;2.13;1.92;;;;;;;24.64;61.71;101838.81;5014804;28;20084;-89
2023/09/05 07:29:14;;;;;;;2.33;2.13;;;;;;;23.82;65.18;101837.31;5014701;28;20153;-89
2023/09/05 07:31:40;;;;;;;;;;;;;;;23.16;67.05;101839.06;5035369;28;20429;-89
2023/09/05 07:34:06;;;;;;;2.45;2.20;;;;;;;22.48;67.11;101827.53;5034382;28;19939;-89
2023/09/05 07:36:33;;;;;;;3.67;2.50;;;;;;;22.00;67.24;101833.34;5033964;28;20080;-89
2023/09/05 07:38:58;;;;;;;;;;;;;;;21.64;66.95;101838.56;5035110;28;20029;-89
2023/09/05 07:41:24;;;;;;;;;;;;;;;21.37;69.37;101829.19;5034572;28;19919;-89
2023/09/05 07:43:49;;;;;;;2.80;2.30;;;;;;;21.16;70.34;101823.06;5032361;28;19990;-89
2023/09/05 07:46:15;;;;;;;2.92;2.33;;;;;;;21.09;72.09;101822.47;5034465;28;20037;-89
2023/09/05 07:48:40;;;;;;;2.33;2.13;;;;;;;20.94;72.23;101817.91;5034879;28;20453;-89
2023/09/05 07:51:07;;;;;;;2.10;1.90;;;;;;;20.82;71.47;101825.41;5033810;28;20030;-90
2023/09/05 07:53:34;;;;;;;;;;;;;;;20.80;72.08;101835.19;5035302;28;20022;-89
2023/09/05 07:55:59;;;;;;;2.13;1.92;;;;;;;20.74;72.59;101816.94;5034248;28;19924;-89
2023/09/05 07:58:26;;;;;;;2.13;1.92;;;;;;;20.78;70.66;101829.09;5033388;28;20037;-89
2023/09/05 08:00:53;;;;;;;3.08;2.33;;;;;;;20.78;73.32;101822.94;5020128;28;20041;-89
2023/09/05 08:03:22;;;;;;;3.58;2.55;;;;;;;20.78;71.77;101826.47;5014338;28;20040;-89
2023/09/05 08:05:48;;;;;;;2.03;1.90;;;;;;;20.81;73.54;101830.75;5012692;28;20041;-86
2023/09/05 08:08:14;;;;;;;3.10;2.05;;;;;;;20.88;72.53;101834.84;5013647;28;20029;-87
2023/09/05 08:10:40;;;;;;;2.10;1.90;;;;;;;20.93;73.42;101830.22;5013524;28;20030;-89
2023/09/05 08:13:06;;;;;;;2.07;1.97;;;;;;;21.00;73.46;101835.25;5013834;28;20381;-89
2023/09/05 08:15:36;;;;;;;3.55;2.38;;;;;;;21.09;72.25;101837.47;5014274;28;20033;-87
2023/09/05 08:18:04;;;;;;;2.53;2.10;;;;;;;21.16;72.48;101838.06;5013894;28;20037;-75
2023/09/05 08:20:30;;;;;;;3.25;2.08;;;;;;;21.25;73.14;101833.22;5012579;28;20025;-78
2023/09/05 08:22:55;;;;;;;2.25;1.88;;;;;;;21.37;72.33;101839.75;5014869;28;20026;-92
2023/09/05 08:25:24;;;;;;;2.53;1.87;;;;;;;21.43;72.75;101835.97;5012872;28;20032;-85
2023/09/05 08:27:53;;;;;;;2.83;1.98;;;;;;;21.57;71.56;101843.25;5013652;28;20434;-87
2023/09/05 08:30:24;;;;;;;2.17;1.83;;;;;;;21.67;71.52;101841.94;5013161;28;20077;-89
2023/09/05 08:32:49;;;;;;;1.88;1.75;;;;;;;21.77;71.77;101838.84;5047132;23;20037;-87
2023/09/05 08:35:15;;;;;;;2.40;2.10;;;;;;;21.89;70.39;101828.56;5052715;28;20113;-90
2023/09/05 08:37:40;;;;;;;2.55;2.30;;;;;;;21.94;69.81;101828.34;5053234;28;20028;-89
2023/09/05 08:40:07;;;;;;;3.77;2.50;;;;;;;22.04;68.39;101824.34;5052365;28;20496;-89
2023/09/05 08:42:36;;;;;;;2.78;2.47;;;;;;;22.12;69.87;101826.63;5053180;28;20083;-89
2023/09/05 08:45:03;;;;;;;2.30;2.10;;;;;;;22.19;69.80;101813.94;5053075;28;20029;-89
2023/09/05 08:47:29;;;;;;;2.33;2.10;;;;;;;22.30;68.66;101816.91;5052176;28;20045;-88
2023/09/05 08:49:55;;;;;;;3.10;2.20;;;;;;;22.42;68.26;101828.69;5053273;28;20025;-89
2023/09/05 08:52:23;;;;;;;2.55;2.17;;;;;;;22.54;68.58;101827.22;5052974;28;20428;-88
2023/09/05 08:54:49;;;;;;;2.20;2.00;;;;;;;22.70;69.50;101826.44;5054140;28;20031;-89
2023/09/05 08:57:17;;;;;;;3.07;2.03;;;;;;;22.81;66.28;101838.19;5053106;28;20111;-89
2023/09/05 08:59:43;;;;;;;2.55;2.20;;;;;;;22.89;66.49;101834.31;5033199;28;20032;-88
2023/09/05 09:02:10;;;;;;;4.10;2.35;;;;;;;22.99;66.30;101832.88;5032287;28;20017;-89
2023/09/05 09:04:51;;;;;;;3.13;2.40;;;;;;;23.10;66.06;101833.19;5032937;28;20116;-88
2023/09/05 09:07:27;;;;;;;3.80;2.50;;;;;;;23.14;65.21;101836.50;5032950;28;20033;-88
2023/09/05 09:09:53;;;;;;;3.83;2.50;;;;;;;23.26;62.88;101837.69;5032822;28;20423;-88
2023/09/05 09:12:25;;;;;;;;;;;;;;;23.39;66.11;101837.91;5033072;28;20022;-89
2023/09/05 09:14:52;;;;;;;2.92;2.30;;;;;;;23.54;60.75;101842.34;5032109;28;19913;-88
2023/09/05 09:17:18;;;;;;;3.75;2.47;;;;;;;23.66;62.89;101839.97;5033539;28;20032;-89
2023/09/05 09:19:44;;;;;;;2.40;2.20;;;;;;;23.72;63.72;101843.13;5037287;28;20030;-88
2023/09/05 09:22:09;;;;;;;3.43;2.30;;;;;;;23.84;63.20;101833.66;5036093;28;20484;-87
2023/09/05 09:24:36;;;;;;;2.23;2.03;;;;;;;23.97;63.72;101847.09;5037245;28;20021;-89
2023/09/05 09:27:04;;;;;;;2.70;2.20;;;;;;;24.08;63.83;101849.16;5053313;28;20487;-88
2023/09/05 09:29:30;;;;;;;2.47;2.10;;;;;;;24.23;63.83;101849.19;5056131;28;20025;-87
2023/09/05 09:32:05;;;;;;;2.00;1.80;;;;;;;24.33;64.09;101850.38;5053360;28;20057;-88
2023/09/05 09:34:40;;;;;;;1.80;1.70;;;;;;;24.48;62.13;101854.81;5036821;28;20048;-89
2023/09/05 09:37:05;;;;;;;2.10;1.90;;;;;;;24.62;59.62;101861.09;5035669;28;20029;-88
2023/09/05 09:39:32;;;;;;;3.40;2.20;;;;;;;24.72;60.35;101862.31;5036465;28;20033;-90
2023/09/05 09:41:59;;;;;;;4.05;2.30;;;;;;;24.78;59.26;101861.91;5036475;28;20040;-90
2023/09/05 09:44:34;;;;;;;3.97;2.40;;;;;;;24.90;60.00;101862.13;5035786;28;20021;-89
2023/09/05 09:47:01;;;;;;;2.63;1.98;;;;;;;24.98;59.56;101858.06;5036542;28;20505;-89
2023/09/05 09:49:29;;;;;;;2.28;2.08;;;;;;;25.09;59.73;101859.22;5036209;28;20083;-89
2023/09/05 09:52:04;;;;;;;3.53;2.20;;;;;;;25.17;59.16;101856.94;5035259;28;20049;-88
2023/09/05 09:54:36;;;;;;;2.92;2.30;;;;;;;25.25;59.45;101852.03;5035185;28;20037;-77
2023/09/05 09:57:06;;;;;;;4.57;2.10;;;;;;;25.36;56.88;101859.31;5034450;28;20735;-77
2023/09/05 09:59:36;;;;;;;2.30;2.10;;;;;;;25.44;58.29;101854.41;5035921;28;20030;-77
2023/09/05 10:02:09;;;;;;;2.30;2.10;;;;;;;25.56;56.94;101849.28;5036463;28;20084;-89
2023/09/05 10:04:35;;;;;;;2.63;2.25;;;;;;;25.65;57.82;101847.84;5035465;28;20025;-89
2023/09/05 10:07:02;;;;;;;2.30;2.10;;;;;;;25.70;55.43;101846.59;5036118;28;20438;-89
2023/09/05 10:09:30;;;;;;;2.47;2.10;;;;;;;25.75;57.37;101844.50;5035720;28;20021;-87
2023/09/05 10:11:58;;;;;;;2.15;1.95;;;;;;;25.84;57.75;101840.38;5035405;28;20030;-89
2023/09/05 10:14:23;;;;;;;2.25;2.05;;;;;;;25.95;57.86;101836.22;5035905;28;20025;-88
2023/09/05 10:16:50;;;;;;;1.63;1.52;;;;;;;26.09;58.48;101835.28;5035713;28;20347;-88
2023/09/05 10:19:17;;;;;;;2.10;2.00;;;;;;;26.18;57.06;101826.72;5034741;28;20447;-88
2023/09/05 10:21:46;;;;;;;2.20;2.00;;;;;;;26.28;56.21;101825.16;5035717;28;20105;-88
2023/09/05 10:24:12;;;;;;;3.10;2.00;;;;;;;26.41;57.67;101827.00;5035428;28;20084;-89
2023/09/05 10:26:38;;;;;;;2.03;1.80;;;;;;;26.54;57.23;101833.22;5035003;28;20025;-89
2023/09/05 10:29:45;;;;;;;2.45;2.05;;;;;;;26.64;56.90;101834.28;5033860;28;20036;-88
2023/09/05 10:32:14;;;;;;;2.50;2.20;;;;;;;26.66;54.48;101832.38;5034093;28;20372;-88
2023/09/05 10:34:45;;;;;;;2.28;1.90;;;;;;;26.79;56.18;101837.75;5035874;28;20430;-88
2023/09/05 10:37:17;;;;;;;2.72;2.17;;;;;;;26.88;55.31;101832.72;5035333;28;20120;-87
2023/09/05 10:39:47;;;;;;;2.38;2.10;;;;;;;26.93;53.78;101823.47;5035358;28;20362;-88
2023/09/05 10:42:13;;;;;;;2.50;2.13;;;;;;;27.02;55.28;101823.81;5035712;28;20100;-89
2023/09/05 10:44:42;;;;;;;;;;;;;;;27.13;53.28;101822.06;5035725;28;20385;-88
2023/09/05 10:47:28;;;;;;;2.58;2.05;;;;;;;27.24;52.93;101823.13;5034910;28;19909;-89
2023/09/05 10:50:04;;;;;;;2.10;1.90;;;;;;;27.33;51.43;101818.97;5035640;28;20048;-89
2023/09/05 10:52:30;;;;;;;3.03;1.95;;;;;;;27.38;51.77;101823.00;5035319;28;20537;-88
2023/09/05 10:55:18;;;;;;;2.47;2.08;;;;;;;27.47;51.41;101815.31;5034612;28;20129;-88
2023/09/05 10:57:47;;;;;;;2.08;1.88;;;;;;;27.63;54.13;101820.41;5034887;28;20048;-89
2023/09/05 11:00:38;;;;;;;2.63;1.90;;;;;;;27.79;53.25;101814.78;5034621;28;20092;-89
2023/09/05 11:03:12;;;;;;;2.35;1.92;;;;;;;27.92;52.70;101809.44;5034809;28;20033;-88
2023/09/05 11:05:40;;;;;;;2.10;1.92;;;;;;;28.01;52.97;101808.72;5035078;28;20021;-88
2023/09/05 11:08:19;;;;;;;2.00;1.90;;;;;;;28.02;52.54;101807.78;5034206;28;20143;-88
2023/09/05 11:10:45;;;;;;;2.47;1.90;;;;;;;28.11;49.65;101807.09;5034751;28;20488;-87
2023/09/05 11:13:14;;;;;;;;;;;;;;;28.16;48.75;101809.44;5088653;23;20053;-88
2023/09/05 11:15:43;;;;;;;2.30;2.10;;;;;;;28.19;51.17;101804.69;5034226;28;20374;-88
2023/09/05 11:18:11;;;;;;;2.35;2.10;;;;;;;28.26;50.44;101814.94;5034700;28;20041;-88
2023/09/05 11:20:44;;;;;;;3.30;2.20;;;;;;;28.29;51.10;101810.22;5034698;28;20176;-88
2023/09/05 11:23:18;;;;;;;2.92;2.30;;;;;;;28.39;49.86;101806.84;5033880;28;20100;-88
2023/09/05 11:25:53;;;;;;;3.67;2.40;;;;;;;28.33;46.75;101808.16;5034632;28;20108;-88
2023/09/05 11:28:21;;;;;;;2.80;2.22;;;;;;;28.39;49.89;101817.50;5196992;22;20049;-88